sensor_id;sensor_type;location;lat;lon;timestamp;pressure;altitude;pressure_sealevel;temperature;humidity
13314;BME280;6725;48.112;11.604;2023-05-24T00:01:56;95436.00;;;14.83;100.00
13314;BME280;6725;48.112;11.604;2023-05-24T00:04:21;95435.72;;;14.77;100.00
13314;BME280;6725;48.112;11.604;2023-05-24T00:06:49;95435.47;;;14.72;100.00
13314;BME280;6725;48.112;11.604;2023-05-24T00:09:14;95431.78;;;14.78;100.00
13314;BME280;6725;48.112;11.604;2023-05-24T00:11:40;95423.34;;;14.69;100.00
13314;BME280;6725;48.112;11.604;2023-05-24T00:14:05;95433.16;;;14.70;100.00
13314;BME280;6725;48.112;11.604;2023-05-24T00:16:31;95421.72;;;14.72;100.00
13314;BME280;6725;48.112;11.604;2023-05-24T00:18:56;95427.97;;;14.72;100.00
13314;BME280;6725;48.112;11.604;2023-05-24T00:21:23;95420.78;;;14.78;100.00
13314;BME280;6725;48.112;11.604;2023-05-24T00:23:49;95426.53;;;14.68;100.00
13314;BME280;6725;48.112;11.604;2023-05-24T00:26:16;95422.47;;;14.72;100.00
13314;BME280;6725;48.112;11.604;2023-05-24T00:28:41;95426.97;;;14.66;100.00
13314;BME280;6725;48.112;11.604;2023-05-24T00:31:06;95421.78;;;14.68;100.00
13314;BME280;6725;48.112;11.604;2023-05-24T00:33:32;95424.03;;;14.73;100.00
13314;BME280;6725;48.112;11.604;2023-05-24T00:35:58;95413.53;;;14.68;100.00
13314;BME280;6725;48.112;11.604;2023-05-24T00:38:27;95415.28;;;14.62;100.00
13314;BME280;6725;48.112;11.604;2023-05-24T00:40:53;95415.28;;;14.62;100.00
13314;BME280;6725;48.112;11.604;2023-05-24T00:43:22;95408.41;;;14.54;100.00
13314;BME280;6725;48.112;11.604;2023-05-24T00:46:06;95412.53;;;14.62;100.00
13314;BME280;6725;48.112;11.604;2023-05-24T00:48:36;95417.66;;;14.44;100.00
13314;BME280;6725;48.112;11.604;2023-05-24T00:51:01;95409.91;;;14.39;100.00
13314;BME280;6725;48.112;11.604;2023-05-24T00:53:27;95403.97;;;14.41;100.00
13314;BME280;6725;48.112;11.604;2023-05-24T00:55:52;95412.31;;;14.37;100.00
13314;BME280;6725;48.112;11.604;2023-05-24T00:58:19;95419.44;;;14.35;100.00
13314;BME280;6725;48.112;11.604;2023-05-24T01:00:46;95414.00;;;14.31;100.00
13314;BME280;6725;48.112;11.604;2023-05-24T01:03:13;95402.44;;;14.20;100.00
13314;BME280;6725;48.112;11.604;2023-05-24T01:05:39;95405.28;;;14.36;100.00
13314;BME280;6725;48.112;11.604;2023-05-24T01:11:00;95402.28;;;14.31;100.00
13314;BME280;6725;48.112;11.604;2023-05-24T01:16:24;95392.25;;;14.21;100.00
13314;BME280;6725;48.112;11.604;2023-05-24T01:19:01;95385.97;;;14.20;100.00
13314;BME280;6725;48.112;11.604;2023-05-24T01:27:12;95389.81;;;14.26;100.00
13314;BME280;6725;48.112;11.604;2023-05-24T01:29:39;95391.28;;;14.31;100.00
13314;BME280;6725;48.112;11.604;2023-05-24T01:32:05;95389.03;;;14.26;100.00
13314;BME280;6725;48.112;11.604;2023-05-24T01:34:31;95396.16;;;14.23;100.00
13314;BME280;6725;48.112;11.604;2023-05-24T01:36:56;95386.22;;;14.29;100.00
13314;BME280;6725;48.112;11.604;2023-05-24T01:39:24;95389.66;;;14.33;100.00
13314;BME280;6725;48.112;11.604;2023-05-24T01:45:22;95393.28;;;13.91;100.00
13314;BME280;6725;48.112;11.604;2023-05-24T01:48:03;95392.66;;;14.03;100.00
13314;BME280;6725;48.112;11.604;2023-05-24T01:50:34;95383.91;;;14.08;100.00
13314;BME280;6725;48.112;11.604;2023-05-24T01:53:06;95383.75;;;14.15;100.00
13314;BME280;6725;48.112;11.604;2023-05-24T01:55:33;95393.34;;;14.07;100.00
13314;BME280;6725;48.112;11.604;2023-05-24T01:58:02;95387.69;;;14.14;100.00
13314;BME280;6725;48.112;11.604;2023-05-24T02:00:29;95389.63;;;13.98;100.00
13314;BME280;6725;48.112;11.604;2023-05-24T02:02:56;95386.75;;;13.85;100.00
13314;BME280;6725;48.112;11.604;2023-05-24T02:05:22;95389.34;;;13.92;100.00
13314;BME280;6725;48.112;11.604;2023-05-24T02:07:49;95377.72;;;14.04;100.00
13314;BME280;6725;48.112;11.604;2023-05-24T02:10:15;95382.72;;;13.90;100.00
13314;BME280;6725;48.112;11.604;2023-05-24T02:12:40;95380.63;;;14.13;100.00
13314;BME280;6725;48.112;11.604;2023-05-24T02:15:06;95372.47;;;14.29;100.00
13314;BME280;6725;48.112;11.604;2023-05-24T02:17:32;95377.28;;;14.25;100.00
13314;BME280;6725;48.112;11.604;2023-05-24T02:19:58;95380.03;;;14.25;100.00
13314;BME280;6725;48.112;11.604;2023-05-24T02:22:24;95379.50;;;14.30;100.00
13314;BME280;6725;48.112;11.604;2023-05-24T02:24:50;95386.47;;;14.35;100.00
13314;BME280;6725;48.112;11.604;2023-05-24T02:27:15;95384.06;;;14.37;100.00
13314;BME280;6725;48.112;11.604;2023-05-24T02:29:40;95381.81;;;14.32;100.00
13314;BME280;6725;48.112;11.604;2023-05-24T02:32:06;95388.09;;;14.32;100.00
13314;BME280;6725;48.112;11.604;2023-05-24T02:34:32;95389.81;;;14.26;100.00
13314;BME280;6725;48.112;11.604;2023-05-24T02:36:57;95386.81;;;14.17;100.00
13314;BME280;6725;48.112;11.604;2023-05-24T02:39:22;95388.53;;;14.11;100.00
13314;BME280;6725;48.112;11.604;2023-05-24T02:41:48;95384.53;;;14.16;100.00
13314;BME280;6725;48.112;11.604;2023-05-24T02:44:13;95382.66;;;13.93;100.00
13314;BME280;6725;48.112;11.604;2023-05-24T02:46:38;95377.63;;;14.08;100.00
13314;BME280;6725;48.112;11.604;2023-05-24T02:49:04;95371.91;;;14.18;100.00
13314;BME280;6725;48.112;11.604;2023-05-24T02:51:29;95374.09;;;14.27;100.00
13314;BME280;6725;48.112;11.604;2023-05-24T02:53:57;95375.72;;;14.24;100.00
13314;BME280;6725;48.112;11.604;2023-05-24T02:56:22;95379.72;;;14.20;100.00
13314;BME280;6725;48.112;11.604;2023-05-24T02:58:47;95368.25;;;14.05;100.00
13314;BME280;6725;48.112;11.604;2023-05-24T03:01:13;95366.38;;;14.02;100.00
13314;BME280;6725;48.112;11.604;2023-05-24T03:03:38;95365.88;;;14.07;100.00
13314;BME280;6725;48.112;11.604;2023-05-24T03:06:05;95363.88;;;14.08;100.00
13314;BME280;6725;48.112;11.604;2023-05-24T03:08:33;95368.25;;;14.05;100.00
13314;BME280;6725;48.112;11.604;2023-05-24T03:10:58;95365.88;;;14.07;100.00
13314;BME280;6725;48.112;11.604;2023-05-24T03:13:24;95369.81;;;14.06;100.00
13314;BME280;6725;48.112;11.604;2023-05-24T03:15:49;95368.00;;;14.00;100.00
13314;BME280;6725;48.112;11.604;2023-05-24T03:18:14;95370.31;;;14.01;100.00
13314;BME280;6725;48.112;11.604;2023-05-24T03:20:40;95370.41;;;13.98;100.00
13314;BME280;6725;48.112;11.604;2023-05-24T03:23:06;95372.00;;;13.95;100.00
13314;BME280;6725;48.112;11.604;2023-05-24T03:25:33;95374.06;;;13.91;100.00
13314;BME280;6725;48.112;11.604;2023-05-24T03:27:58;95365.41;;;13.73;100.00
13314;BME280;6725;48.112;11.604;2023-05-24T03:30:25;95373.44;;;13.84;100.00
13314;BME280;6725;48.112;11.604;2023-05-24T03:32:50;95370.97;;;13.89;100.00
13314;BME280;6725;48.112;11.604;2023-05-24T03:35:15;95368.81;;;13.81;100.00
13314;BME280;6725;48.112;11.604;2023-05-24T03:37:41;95376.47;;;13.89;100.00
13314;BME280;6725;48.112;11.604;2023-05-24T03:40:06;95375.00;;;13.85;100.00
13314;BME280;6725;48.112;11.604;2023-05-24T03:42:32;95382.09;;;13.82;100.00
13314;BME280;6725;48.112;11.604;2023-05-24T03:44:58;95384.56;;;13.77;100.00
13314;BME280;6725;48.112;11.604;2023-05-24T03:47:23;95380.47;;;13.85;100.00
13314;BME280;6725;48.112;11.604;2023-05-24T03:49:48;95385.88;;;13.88;100.00
13314;BME280;6725;48.112;11.604;2023-05-24T03:52:14;95386.16;;;13.94;100.00
13314;BME280;6725;48.112;11.604;2023-05-24T03:54:39;95386.59;;;13.92;100.00
13314;BME280;6725;48.112;11.604;2023-05-24T03:57:05;95389.34;;;13.92;100.00
13314;BME280;6725;48.112;11.604;2023-05-24T03:59:30;95393.69;;;13.90;100.00
13314;BME280;6725;48.112;11.604;2023-05-24T04:01:56;95395.13;;;13.98;100.00
13314;BME280;6725;48.112;11.604;2023-05-24T04:04:21;95399.59;;;13.88;100.00
13314;BME280;6725;48.112;11.604;2023-05-24T04:06:47;95398.44;;;13.89;100.00
13314;BME280;6725;48.112;11.604;2023-05-24T04:09:13;95396.09;;;13.88;100.00
13314;BME280;6725;48.112;11.604;2023-05-24T04:11:39;95398.06;;;13.87;100.00
13314;BME280;6725;48.112;11.604;2023-05-24T04:14:05;95394.34;;;13.97;100.00
13314;BME280;6725;48.112;11.604;2023-05-24T04:16:30;95399.81;;;13.97;100.00
13314;BME280;6725;48.112;11.604;2023-05-24T04:18:58;95401.38;;;13.98;100.00
13314;BME280;6725;48.112;11.604;2023-05-24T04:21:25;95393.50;;;13.61;100.00
13314;BME280;6725;48.112;11.604;2023-05-24T04:23:50;95402.72;;;13.71;100.00
13314;BME280;6725;48.112;11.604;2023-05-24T04:26:16;95400.25;;;13.76;100.00
13314;BME280;6725;48.112;11.604;2023-05-24T04:28:41;95402.66;;;13.74;100.00
13314;BME280;6725;48.112;11.604;2023-05-24T04:31:07;95406.53;;;13.77;100.00
13314;BME280;6725;48.112;11.604;2023-05-24T04:33:34;95407.00;;;13.91;100.00
13314;BME280;6725;48.112;11.604;2023-05-24T04:35:59;95417.00;;;14.01;100.00
13314;BME280;6725;48.112;11.604;2023-05-24T04:38:28;95416.84;;;14.08;100.00
13314;BME280;6725;48.112;11.604;2023-05-24T04:40:57;95416.84;;;14.08;100.00
13314;BME280;6725;48.112;11.604;2023-05-24T04:43:26;95413.44;;;14.20;100.00
13314;BME280;6725;48.112;11.604;2023-05-24T04:45:52;95414.09;;;14.28;100.00
13314;BME280;6725;48.112;11.604;2023-05-24T04:48:19;95416.06;;;14.27;100.00
13314;BME280;6725;48.112;11.604;2023-05-24T04:50:45;95415.06;;;14.37;100.00
13314;BME280;6725;48.112;11.604;2023-05-24T04:53:11;95419.34;;;14.38;100.00
13314;BME280;6725;48.112;11.604;2023-05-24T04:55:37;95414.97;;;14.41;100.00
13314;BME280;6725;48.112;11.604;2023-05-24T04:58:02;95428.22;;;14.46;100.00
13314;BME280;6725;48.112;11.604;2023-05-24T05:00:28;95429.66;;;14.34;100.00
13314;BME280;6725;48.112;11.604;2023-05-24T05:02:54;95433.06;;;14.22;100.00
13314;BME280;6725;48.112;11.604;2023-05-24T05:05:20;95428.38;;;14.19;100.00
13314;BME280;6725;48.112;11.604;2023-05-24T05:07:45;95427.56;;;14.22;100.00
13314;BME280;6725;48.112;11.604;2023-05-24T05:10:11;95431.28;;;14.12;100.00
13314;BME280;6725;48.112;11.604;2023-05-24T05:12:36;95419.38;;;13.99;100.00
13314;BME280;6725;48.112;11.604;2023-05-24T05:15:02;95428.34;;;13.84;100.00
13314;BME280;6725;48.112;11.604;2023-05-24T05:17:28;95420.81;;;14.07;100.00
13314;BME280;6725;48.112;11.604;2023-05-24T05:19:53;95420.94;;;14.20;100.00
13314;BME280;6725;48.112;11.604;2023-05-24T05:22:19;95431.50;;;14.21;100.00
13314;BME280;6725;48.112;11.604;2023-05-24T05:24:44;95438.47;;;14.26;100.00
13314;BME280;6725;48.112;11.604;2023-05-24T05:27:10;95441.53;;;13.92;100.00
13314;BME280;6725;48.112;11.604;2023-05-24T05:29:35;95439.66;;;14.05;100.00
13314;BME280;6725;48.112;11.604;2023-05-24T05:32:00;95444.03;;;13.83;100.00
13314;BME280;6725;48.112;11.604;2023-05-24T05:34:26;95434.03;;;13.73;100.00
13314;BME280;6725;48.112;11.604;2023-05-24T05:36:51;95434.59;;;13.84;100.00
13314;BME280;6725;48.112;11.604;2023-05-24T05:39:16;95437.84;;;13.79;100.00
13314;BME280;6725;48.112;11.604;2023-05-24T05:41:41;95446.38;;;13.85;100.00
13314;BME280;6725;48.112;11.604;2023-05-24T05:44:09;95442.22;;;13.96;100.00
13314;BME280;6725;48.112;11.604;2023-05-24T05:46:35;95436.78;;;14.12;100.00
13314;BME280;6725;48.112;11.604;2023-05-24T05:49:00;95435.41;;;14.20;100.00
13314;BME280;6725;48.112;11.604;2023-05-24T05:51:25;95437.38;;;14.39;100.00
13314;BME280;6725;48.112;11.604;2023-05-24T05:53:51;95441.44;;;14.35;100.00
13314;BME280;6725;48.112;11.604;2023-05-24T05:56:16;95445.13;;;14.44;100.00
13314;BME280;6725;48.112;11.604;2023-05-24T05:58:42;95436.22;;;14.56;100.00
13314;BME280;6725;48.112;11.604;2023-05-24T06:01:07;95428.31;;;14.58;100.00
13314;BME280;6725;48.112;11.604;2023-05-24T06:03:32;95433.75;;;14.94;100.00
13314;BME280;6725;48.112;11.604;2023-05-24T06:05:58;95432.09;;;15.44;100.00
13314;BME280;6725;48.112;11.604;2023-05-24T06:08:23;95434.28;;;15.65;100.00
13314;BME280;6725;48.112;11.604;2023-05-24T06:10:48;95444.81;;;14.90;100.00
13314;BME280;6725;48.112;11.604;2023-05-24T06:13:14;95434.00;;;14.83;100.00
13314;BME280;6725;48.112;11.604;2023-05-24T06:15:39;95436.91;;;14.60;100.00
13314;BME280;6725;48.112;11.604;2023-05-24T06:18:05;95438.47;;;15.25;100.00
13314;BME280;6725;48.112;11.604;2023-05-24T06:20:31;95441.75;;;14.88;100.00
13314;BME280;6725;48.112;11.604;2023-05-24T06:22:56;95432.09;;;15.12;100.00
13314;BME280;6725;48.112;11.604;2023-05-24T06:25:22;95431.25;;;15.31;100.00
13314;BME280;6725;48.112;11.604;2023-05-24T06:27:49;95436.63;;;15.35;100.00
13314;BME280;6725;48.112;11.604;2023-05-24T06:30:15;95442.25;;;14.99;100.00
13314;BME280;6725;48.112;11.604;2023-05-24T06:32:40;95443.97;;;15.41;100.00
13314;BME280;6725;48.112;11.604;2023-05-24T06:35:06;95437.19;;;16.28;100.00
13314;BME280;6725;48.112;11.604;2023-05-24T06:37:32;95436.06;;;16.42;100.00
13314;BME280;6725;48.112;11.604;2023-05-24T06:39:57;95433.59;;;15.90;100.00
13314;BME280;6725;48.112;11.604;2023-05-24T06:42:23;95432.13;;;16.14;100.00
13314;BME280;6725;48.112;11.604;2023-05-24T06:44:48;95431.38;;;15.85;100.00
13314;BME280;6725;48.112;11.604;2023-05-24T06:47:13;95442.06;;;15.83;100.00
13314;BME280;6725;48.112;11.604;2023-05-24T06:49:39;95437.81;;;15.94;100.00
13314;BME280;6725;48.112;11.604;2023-05-24T06:52:04;95434.34;;;17.32;100.00
13314;BME280;6725;48.112;11.604;2023-05-24T06:54:31;95433.84;;;17.12;100.00
13314;BME280;6725;48.112;11.604;2023-05-24T06:56:57;95432.25;;;19.35;100.00
13314;BME280;6725;48.112;11.604;2023-05-24T06:59:23;95435.72;;;20.11;100.00
13314;BME280;6725;48.112;11.604;2023-05-24T07:01:48;95444.00;;;19.66;100.00
13314;BME280;6725;48.112;11.604;2023-05-24T07:04:17;95446.16;;;19.62;100.00
13314;BME280;6725;48.112;11.604;2023-05-24T07:06:42;95444.00;;;19.84;100.00
13314;BME280;6725;48.112;11.604;2023-05-24T07:09:08;95444.31;;;19.68;100.00
13314;BME280;6725;48.112;11.604;2023-05-24T07:11:34;95442.06;;;21.45;100.00
13314;BME280;6725;48.112;11.604;2023-05-24T07:13:59;95438.69;;;21.41;100.00
13314;BME280;6725;48.112;11.604;2023-05-24T07:16:25;95438.66;;;22.12;100.00
13314;BME280;6725;48.112;11.604;2023-05-24T07:18:50;95443.00;;;21.42;100.00
13314;BME280;6725;48.112;11.604;2023-05-24T07:21:15;95444.94;;;21.51;100.00
13314;BME280;6725;48.112;11.604;2023-05-24T07:23:41;95450.38;;;20.71;100.00
13314;BME280;6725;48.112;11.604;2023-05-24T07:26:06;95443.94;;;19.30;100.00
13314;BME280;6725;48.112;11.604;2023-05-24T07:28:33;95447.94;;;19.29;100.00
13314;BME280;6725;48.112;11.604;2023-05-24T07:31:02;95451.25;;;19.15;100.00
13314;BME280;6725;48.112;11.604;2023-05-24T07:33:27;95451.53;;;19.57;100.00
13314;BME280;6725;48.112;11.604;2023-05-24T07:35:52;95440.59;;;19.62;100.00
13314;BME280;6725;48.112;11.604;2023-05-24T07:38:18;95442.44;;;19.47;100.00
13314;BME280;6725;48.112;11.604;2023-05-24T07:40:43;95450.47;;;19.90;100.00
13314;BME280;6725;48.112;11.604;2023-05-24T07:43:09;95447.06;;;19.59;100.00
13314;BME280;6725;48.112;11.604;2023-05-24T07:45:34;95451.81;;;19.01;100.00
13314;BME280;6725;48.112;11.604;2023-05-24T07:48:00;95451.16;;;18.88;100.00
13314;BME280;6725;48.112;11.604;2023-05-24T07:50:25;95452.19;;;19.21;100.00
13314;BME280;6725;48.112;11.604;2023-05-24T07:52:51;95453.56;;;19.16;100.00
13314;BME280;6725;48.112;11.604;2023-05-24T07:55:16;95458.06;;;18.83;100.00
13314;BME280;6725;48.112;11.604;2023-05-24T07:57:41;95449.66;;;18.65;100.00
13314;BME280;6725;48.112;11.604;2023-05-24T08:00:07;95451.47;;;18.90;100.00
13314;BME280;6725;48.112;11.604;2023-05-24T08:02:41;95451.78;;;18.92;100.00
13314;BME280;6725;48.112;11.604;2023-05-24T08:05:10;95448.28;;;19.00;100.00
13314;BME280;6725;48.112;11.604;2023-05-24T08:07:35;95459.06;;;19.07;100.00
13314;BME280;6725;48.112;11.604;2023-05-24T08:10:01;95459.25;;;19.13;100.00
13314;BME280;6725;48.112;11.604;2023-05-24T08:12:26;95458.44;;;19.43;100.00
13314;BME280;6725;48.112;11.604;2023-05-24T08:14:54;95460.03;;;19.71;100.00
13314;BME280;6725;48.112;11.604;2023-05-24T08:17:20;95442.50;;;20.19;100.00
13314;BME280;6725;48.112;11.604;2023-05-24T08:19:45;95443.78;;;20.60;100.00
13314;BME280;6725;48.112;11.604;2023-05-24T08:22:10;95451.09;;;20.30;100.00
13314;BME280;6725;48.112;11.604;2023-05-24T08:24:36;95451.03;;;20.57;100.00
13314;BME280;6725;48.112;11.604;2023-05-24T08:27:02;95451.53;;;20.47;100.00
13314;BME280;6725;48.112;11.604;2023-05-24T08:29:28;95458.91;;;20.59;100.00
13314;BME280;6725;48.112;11.604;2023-05-24T08:31:53;95454.91;;;20.42;100.00
13314;BME280;6725;48.112;11.604;2023-05-24T08:34:19;95461.50;;;20.71;100.00
13314;BME280;6725;48.112;11.604;2023-05-24T08:36:44;95462.19;;;20.21;100.00
13314;BME280;6725;48.112;11.604;2023-05-24T08:39:10;95472.31;;;19.70;100.00
13314;BME280;6725;48.112;11.604;2023-05-24T08:41:35;95466.28;;;19.44;100.00
13314;BME280;6725;48.112;11.604;2023-05-24T08:44:05;95468.81;;;19.21;100.00
13314;BME280;6725;48.112;11.604;2023-05-24T08:46:35;95466.66;;;19.16;100.00
13314;BME280;6725;48.112;11.604;2023-05-24T08:49:02;95459.25;;;19.13;100.00
13314;BME280;6725;48.112;11.604;2023-05-24T08:51:28;95461.94;;;19.25;100.00
13314;BME280;6725;48.112;11.604;2023-05-24T08:53:56;95465.09;;;19.15;100.00
13314;BME280;6725;48.112;11.604;2023-05-24T08:56:24;95466.00;;;19.12;100.00
13314;BME280;6725;48.112;11.604;2023-05-24T08:58:51;95471.41;;;19.15;100.00
13314;BME280;6725;48.112;11.604;2023-05-24T09:01:16;95476.06;;;18.88;100.00
13314;BME280;6725;48.112;11.604;2023-05-24T09:03:46;95476.22;;;18.54;100.00
13314;BME280;6725;48.112;11.604;2023-05-24T09:06:12;95480.88;;;18.66;100.00
13314;BME280;6725;48.112;11.604;2023-05-24T09:08:41;95471.19;;;18.40;100.00
13314;BME280;6725;48.112;11.604;2023-05-24T09:11:07;95469.13;;;18.53;100.00
13314;BME280;6725;48.112;11.604;2023-05-24T09:13:33;95472.31;;;18.73;100.00
13314;BME280;6725;48.112;11.604;2023-05-24T09:15:59;95475.97;;;18.70;100.00
13314;BME280;6725;48.112;11.604;2023-05-24T09:18:25;95479.00;;;17.77;100.00
13314;BME280;6725;48.112;11.604;2023-05-24T09:20:50;95486.94;;;17.75;100.00
13314;BME280;6725;48.112;11.604;2023-05-24T09:23:16;95490.91;;;17.27;100.00
13314;BME280;6725;48.112;11.604;2023-05-24T09:25:46;95486.50;;;17.17;100.00
13314;BME280;6725;48.112;11.604;2023-05-24T09:28:21;95489.13;;;17.21;100.00
13314;BME280;6725;48.112;11.604;2023-05-24T09:31:01;95480.81;;;17.46;100.00
13314;BME280;6725;48.112;11.604;2023-05-24T09:33:28;95490.09;;;17.52;100.00
13314;BME280;6725;48.112;11.604;2023-05-24T09:35:59;95492.75;;;17.30;100.00
13314;BME280;6725;48.112;11.604;2023-05-24T09:38:25;95491.25;;;16.67;100.00
13314;BME280;6725;48.112;11.604;2023-05-24T09:41:06;95494.72;;;16.55;100.00
13314;BME280;6725;48.112;11.604;2023-05-24T09:43:33;95491.88;;;16.96;100.00
13314;BME280;6725;48.112;11.604;2023-05-24T09:46:02;95501.50;;;17.04;100.00
13314;BME280;6725;48.112;11.604;2023-05-24T09:48:29;95501.50;;;17.16;100.00
13314;BME280;6725;48.112;11.604;2023-05-24T09:51:05;95496.22;;;17.22;100.00
13314;BME280;6725;48.112;11.604;2023-05-24T09:53:35;95488.81;;;17.44;100.00
13314;BME280;6725;48.112;11.604;2023-05-24T09:56:05;95488.75;;;17.56;100.00
13314;BME280;6725;48.112;11.604;2023-05-24T09:58:32;95495.09;;;17.44;100.00
13314;BME280;6725;48.112;11.604;2023-05-24T10:01:05;95505.78;;;17.30;100.00
13314;BME280;6725;48.112;11.604;2023-05-24T10:03:32;95500.50;;;17.10;100.00
13314;BME280;6725;48.112;11.604;2023-05-24T10:05:58;95507.34;;;17.56;100.00
13314;BME280;6725;48.112;11.604;2023-05-24T10:08:24;95502.69;;;17.28;100.00
13314;BME280;6725;48.112;11.604;2023-05-24T10:10:50;95506.25;;;17.16;100.00
13314;BME280;6725;48.112;11.604;2023-05-24T10:13:16;95510.09;;;17.06;100.00
13314;BME280;6725;48.112;11.604;2023-05-24T10:15:43;95494.19;;;17.22;100.00
13314;BME280;6725;48.112;11.604;2023-05-24T10:18:08;95495.53;;;17.18;100.00
13314;BME280;6725;48.112;11.604;2023-05-24T10:20:35;95499.41;;;16.83;100.00
13314;BME280;6725;48.112;11.604;2023-05-24T10:23:03;95506.25;;;16.91;100.00
13314;BME280;6725;48.112;11.604;2023-05-24T10:25:32;95508.78;;;16.98;100.00
13314;BME280;6725;48.112;11.604;2023-05-24T10:28:06;95505.47;;;16.90;100.00
13314;BME280;6725;48.112;11.604;2023-05-24T10:30:49;95516.69;;;16.29;100.00
13314;BME280;6725;48.112;11.604;2023-05-24T10:33:17;95519.41;;;15.88;100.00
13314;BME280;6725;48.112;11.604;2023-05-24T10:35:45;95512.19;;;15.94;100.00
13314;BME280;6725;48.112;11.604;2023-05-24T10:38:11;95508.50;;;16.13;100.00
13314;BME280;6725;48.112;11.604;2023-05-24T10:40:40;95506.47;;;16.01;100.00
13314;BME280;6725;48.112;11.604;2023-05-24T10:43:07;95514.31;;;16.03;100.00
13314;BME280;6725;48.112;11.604;2023-05-24T10:45:36;95509.44;;;15.78;100.00
13314;BME280;6725;48.112;11.604;2023-05-24T10:48:08;95513.53;;;16.02;100.00
13314;BME280;6725;48.112;11.604;2023-05-24T10:50:34;95512.28;;;16.19;100.00
13314;BME280;6725;48.112;11.604;2023-05-24T10:53:20;95518.75;;;16.42;100.00
13314;BME280;6725;48.112;11.604;2023-05-24T10:55:56;95517.59;;;16.26;100.00
13314;BME280;6725;48.112;11.604;2023-05-24T10:58:43;95510.75;;;16.60;100.00
13314;BME280;6725;48.112;11.604;2023-05-24T11:01:34;95510.88;;;16.94;100.00
13314;BME280;6725;48.112;11.604;2023-05-24T11:04:10;95513.22;;;16.95;100.00
13314;BME280;6725;48.112;11.604;2023-05-24T11:09:20;95504.97;;;16.42;100.00
13314;BME280;6725;48.112;11.604;2023-05-24T11:11:47;95505.22;;;16.31;100.00
13314;BME280;6725;48.112;11.604;2023-05-24T11:14:17;95502.13;;;16.58;100.00
13314;BME280;6725;48.112;11.604;2023-05-24T11:16:44;95507.47;;;16.77;100.00
13314;BME280;6725;48.112;11.604;2023-05-24T11:19:35;95509.00;;;16.78;100.00
13314;BME280;6725;48.112;11.604;2023-05-24T11:22:05;95508.34;;;16.74;100.00
13314;BME280;6725;48.112;11.604;2023-05-24T11:24:31;95509.53;;;16.19;100.00
13314;BME280;6725;48.112;11.604;2023-05-24T11:26:59;95510.59;;;16.51;100.00
13314;BME280;6725;48.112;11.604;2023-05-24T11:29:27;95507.34;;;16.39;100.00
13314;BME280;6725;48.112;11.604;2023-05-24T11:31:59;95505.72;;;16.42;100.00
13314;BME280;6725;48.112;11.604;2023-05-24T11:34:32;95513.25;;;16.42;100.00
13314;BME280;6725;48.112;11.604;2023-05-24T11:36:58;95514.84;;;16.39;100.00
13314;BME280;6725;48.112;11.604;2023-05-24T11:39:29;95501.56;;;16.63;100.00
13314;BME280;6725;48.112;11.604;2023-05-24T11:41:55;95503.59;;;16.87;100.00
13314;BME280;6725;48.112;11.604;2023-05-24T11:44:21;95502.72;;;16.78;100.00
13314;BME280;6725;48.112;11.604;2023-05-24T11:46:46;95502.72;;;17.03;100.00
13314;BME280;6725;48.112;11.604;2023-05-24T11:49:13;95501.22;;;17.61;100.00
13314;BME280;6725;48.112;11.604;2023-05-24T11:51:39;95504.09;;;18.04;100.00
13314;BME280;6725;48.112;11.604;2023-05-24T11:54:05;95504.53;;;18.24;100.00
13314;BME280;6725;48.112;11.604;2023-05-24T11:56:30;95498.22;;;18.36;100.00
13314;BME280;6725;48.112;11.604;2023-05-24T11:59:14;95506.09;;;18.68;100.00
13314;BME280;6725;48.112;11.604;2023-05-24T12:01:40;95500.28;;;17.89;100.00
13314;BME280;6725;48.112;11.604;2023-05-24T12:04:06;95503.31;;;18.03;100.00
13314;BME280;6725;48.112;11.604;2023-05-24T12:06:35;95509.22;;;18.14;100.00
13314;BME280;6725;48.112;11.604;2023-05-24T12:09:01;95503.69;;;18.14;100.00
13314;BME280;6725;48.112;11.604;2023-05-24T12:11:30;95500.28;;;17.42;100.00
13314;BME280;6725;48.112;11.604;2023-05-24T12:13:57;95507.09;;;17.63;100.00
13314;BME280;6725;48.112;11.604;2023-05-24T12:16:23;95504.91;;;17.92;100.00
13314;BME280;6725;48.112;11.604;2023-05-24T12:18:51;95504.72;;;17.86;100.00
13314;BME280;6725;48.112;11.604;2023-05-24T12:21:16;95501.91;;;17.52;100.00
13314;BME280;6725;48.112;11.604;2023-05-24T12:23:46;95512.94;;;17.52;100.00
13314;BME280;6725;48.112;11.604;2023-05-24T12:26:12;95508.56;;;17.42;100.00
13314;BME280;6725;48.112;11.604;2023-05-24T12:28:37;95518.50;;;17.02;100.00
13314;BME280;6725;48.112;11.604;2023-05-24T12:31:04;95513.00;;;16.90;100.00
13314;BME280;6725;48.112;11.604;2023-05-24T12:33:30;95510.88;;;17.19;100.00
13314;BME280;6725;48.112;11.604;2023-05-24T12:35:56;95508.88;;;17.32;100.00
13314;BME280;6725;48.112;11.604;2023-05-24T12:38:23;95509.78;;;17.04;100.00
13314;BME280;6725;48.112;11.604;2023-05-24T12:40:50;95512.50;;;17.29;100.00
13314;BME280;6725;48.112;11.604;2023-05-24T12:43:15;95513.88;;;17.49;100.00
13314;BME280;6725;48.112;11.604;2023-05-24T12:45:41;95515.94;;;17.58;100.00
13314;BME280;6725;48.112;11.604;2023-05-24T12:48:07;95509.94;;;17.72;100.00
13314;BME280;6725;48.112;11.604;2023-05-24T12:50:32;95511.47;;;17.73;100.00
13314;BME280;6725;48.112;11.604;2023-05-24T12:52:58;95515.63;;;17.56;100.00
13314;BME280;6725;48.112;11.604;2023-05-24T12:55:25;95516.28;;;17.35;100.00
13314;BME280;6725;48.112;11.604;2023-05-24T12:57:52;95515.31;;;17.04;100.00
13314;BME280;6725;48.112;11.604;2023-05-24T13:00:19;95515.50;;;16.72;100.00
13314;BME280;6725;48.112;11.604;2023-05-24T13:02:45;95505.38;;;16.94;100.00
13314;BME280;6725;48.112;11.604;2023-05-24T13:05:11;95499.91;;;17.40;100.00
13314;BME280;6725;48.112;11.604;2023-05-24T13:07:36;95488.00;;;17.90;100.00